createdAt,value
2023-04-19T00:01:26.451Z,12.91
2023-04-19T00:03:30.945Z,12.94
2023-04-19T00:05:33.252Z,12.90
2023-04-19T00:07:35.716Z,12.94
2023-04-19T00:09:37.857Z,12.80
2023-04-19T00:11:40.151Z,12.86
2023-04-19T00:13:42.309Z,12.83
2023-04-19T00:15:44.534Z,12.87
2023-04-19T00:17:46.607Z,12.88
2023-04-19T00:19:48.833Z,12.88
2023-04-19T00:21:50.979Z,12.88
2023-04-19T00:23:54.422Z,12.85
2023-04-19T00:25:56.642Z,12.81
2023-04-19T00:27:58.981Z,12.83
2023-04-19T00:30:03.173Z,12.78
2023-04-19T00:32:06.323Z,12.83
2023-04-19T00:34:09.270Z,12.89
2023-04-19T00:36:13.609Z,12.81
2023-04-19T00:38:17.388Z,12.76
2023-04-19T00:40:20.066Z,12.81
2023-04-19T00:42:23.168Z,12.77
2023-04-19T00:44:25.170Z,12.81
2023-04-19T00:46:27.966Z,12.84
2023-04-19T00:48:31.047Z,12.72
2023-04-19T00:50:33.182Z,12.78
2023-04-19T00:52:35.668Z,12.82
2023-04-19T00:54:38.388Z,12.80
2023-04-19T00:56:41.130Z,12.71
2023-04-19T00:58:43.236Z,12.79
2023-04-19T01:00:45.169Z,12.71
2023-04-19T01:02:48.177Z,12.80
2023-04-19T01:04:50.429Z,12.80
2023-04-19T01:06:52.398Z,12.78
2023-04-19T01:08:54.616Z,12.66
2023-04-19T01:10:56.547Z,12.71
2023-04-19T01:12:58.453Z,12.75
2023-04-19T01:15:00.433Z,12.69
2023-04-19T01:17:02.359Z,12.68
2023-04-19T01:19:04.323Z,12.63
2023-04-19T01:21:07.520Z,12.68
2023-04-19T01:23:11.896Z,12.67
2023-04-19T01:25:13.935Z,12.69
2023-04-19T01:27:17.654Z,12.70
2023-04-19T01:29:20.984Z,12.70
2023-04-19T01:31:22.999Z,12.74
2023-04-19T01:33:25.034Z,12.68
2023-04-19T01:35:27.061Z,12.63
2023-04-19T01:37:28.992Z,12.68
2023-04-19T01:39:31.458Z,12.69
2023-04-19T01:41:33.377Z,12.57
2023-04-19T01:43:35.308Z,12.62
2023-04-19T01:45:37.508Z,12.69
2023-04-19T01:47:39.536Z,12.73
2023-04-19T01:49:41.491Z,12.61
2023-04-19T01:51:43.513Z,12.61
2023-04-19T01:53:45.506Z,12.59
2023-04-19T01:55:47.478Z,12.66
2023-04-19T01:57:49.373Z,12.65
2023-04-19T01:59:52.621Z,12.70
2023-04-19T02:01:54.554Z,12.61
2023-04-19T02:03:57.756Z,12.68
2023-04-19T02:05:59.855Z,12.73
2023-04-19T02:08:01.922Z,12.71
2023-04-19T02:10:05.996Z,12.71
2023-04-19T02:12:08.098Z,12.68
2023-04-19T02:14:10.689Z,12.69
2023-04-19T02:16:12.994Z,12.68
2023-04-19T02:18:15.026Z,12.64
2023-04-19T02:20:17.044Z,12.69
2023-04-19T02:22:19.836Z,12.64
2023-04-19T02:24:21.768Z,12.67
2023-04-19T02:26:24.721Z,12.61
2023-04-19T02:28:26.645Z,12.57
2023-04-19T02:30:28.626Z,12.63
2023-04-19T02:32:30.696Z,12.66
2023-04-19T02:34:34.725Z,12.65
2023-04-19T02:36:36.648Z,12.59
2023-04-19T02:38:38.646Z,12.59
2023-04-19T02:40:40.612Z,12.64
2023-04-19T02:42:42.540Z,12.61
2023-04-19T02:44:44.492Z,12.64
2023-04-19T02:46:50.536Z,12.56
2023-04-19T02:48:52.463Z,12.62
2023-04-19T02:50:54.617Z,12.64
2023-04-19T02:52:58.138Z,12.60
2023-04-19T02:55:00.027Z,12.59
2023-04-19T02:57:02.053Z,12.58
2023-04-19T02:59:04.750Z,12.55
2023-04-19T03:01:07.325Z,12.57
2023-04-19T03:03:09.890Z,12.53
2023-04-19T03:05:11.956Z,12.44
2023-04-19T03:07:14.325Z,12.35
2023-04-19T03:09:16.261Z,12.45
2023-04-19T03:11:18.783Z,12.46
2023-04-19T03:13:20.876Z,12.24
2023-04-19T03:15:23.235Z,12.30
2023-04-19T03:17:25.208Z,12.36
2023-04-19T03:19:27.160Z,12.32
2023-04-19T03:21:29.285Z,12.27
2023-04-19T03:23:31.177Z,12.30
2023-04-19T03:25:33.404Z,12.33
2023-04-19T03:27:36.979Z,12.18
2023-04-19T03:29:38.889Z,12.12
2023-04-19T03:31:40.871Z,12.13
2023-04-19T03:33:42.892Z,12.16
2023-04-19T03:35:45.933Z,12.23
2023-04-19T03:37:47.875Z,12.22
2023-04-19T03:39:49.824Z,12.28
2023-04-19T03:41:51.797Z,12.28
2023-04-19T03:43:53.792Z,12.28
2023-04-19T03:45:55.695Z,12.29
2023-04-19T03:47:57.908Z,12.29
2023-04-19T03:50:00.424Z,12.29
2023-04-19T03:52:02.337Z,12.31
2023-04-19T03:54:04.543Z,12.29
2023-04-19T03:56:06.694Z,12.28
2023-04-19T03:58:08.646Z,12.30
2023-04-19T04:00:11.807Z,12.30
2023-04-19T04:02:13.860Z,12.23
2023-04-19T04:04:16.350Z,12.27
2023-04-19T04:06:18.625Z,12.31
2023-04-19T04:08:20.550Z,12.28
2023-04-19T04:10:22.443Z,12.33
2023-04-19T04:12:24.473Z,12.30
2023-04-19T04:14:26.384Z,12.28
2023-04-19T04:16:28.499Z,12.21
2023-04-19T04:18:31.009Z,11.99
2023-04-19T04:20:32.959Z,12.13
2023-04-19T04:22:34.868Z,12.10
2023-04-19T04:24:41.490Z,12.13
2023-04-19T04:26:43.474Z,12.20
2023-04-19T04:28:46.073Z,12.12
2023-04-19T04:30:47.956Z,12.12
2023-04-19T04:32:51.474Z,12.18
2023-04-19T04:34:53.497Z,12.17
2023-04-19T04:36:55.972Z,12.01
2023-04-19T04:39:02.023Z,12.11
2023-04-19T04:41:03.982Z,12.07
2023-04-19T04:43:05.916Z,11.99
2023-04-19T04:45:10.896Z,11.83
2023-04-19T04:47:13.902Z,11.84
2023-04-19T04:49:15.866Z,11.75
2023-04-19T04:51:17.777Z,11.85
2023-04-19T04:53:20.477Z,11.87
2023-04-19T04:55:22.560Z,11.86
2023-04-19T04:57:24.636Z,11.86
2023-04-19T04:59:26.891Z,11.84
2023-04-19T05:01:28.956Z,11.83
2023-04-19T05:03:30.937Z,11.83
2023-04-19T05:05:32.880Z,11.80
2023-04-19T05:07:34.814Z,11.86
2023-04-19T05:09:36.754Z,11.81
2023-04-19T05:11:38.881Z,11.78
2023-04-19T05:13:40.982Z,11.89
2023-04-19T05:15:42.889Z,11.82
2023-04-19T05:17:44.919Z,11.83
2023-04-19T05:19:46.932Z,11.81
2023-04-19T05:21:49.071Z,11.78
2023-04-19T05:23:53.731Z,11.80
2023-04-19T05:25:55.729Z,11.74
2023-04-19T05:27:58.296Z,11.82
2023-04-19T05:30:00.256Z,11.79
2023-04-19T05:32:02.244Z,11.73
2023-04-19T05:34:04.181Z,11.73
2023-04-19T05:36:06.740Z,11.67
2023-04-19T05:38:08.678Z,11.71
2023-04-19T05:40:10.888Z,11.67
2023-04-19T05:42:12.860Z,11.71
2023-04-19T05:44:15.257Z,11.68
2023-04-19T05:46:17.554Z,11.71
2023-04-19T05:48:19.670Z,11.70
2023-04-19T05:50:21.687Z,11.70
2023-04-19T05:52:23.638Z,11.70
2023-04-19T05:54:25.675Z,11.69
2023-04-19T05:56:27.741Z,11.70
2023-04-19T05:58:29.743Z,11.67
2023-04-19T06:00:32.688Z,11.63
2023-04-19T06:02:34.746Z,11.68
2023-04-19T06:04:37.388Z,11.71
2023-04-19T06:06:39.970Z,11.68
2023-04-19T06:08:42.013Z,11.69
2023-04-19T06:10:54.536Z,11.78
2023-04-19T06:12:58.907Z,11.69
2023-04-19T06:15:00.878Z,11.76
2023-04-19T06:17:03.115Z,11.76
2023-04-19T06:19:05.114Z,11.77
2023-04-19T06:21:07.076Z,11.76
2023-04-19T06:23:09.058Z,11.80
2023-04-19T06:25:11.048Z,11.70
2023-04-19T06:27:13.159Z,11.69
2023-04-19T06:29:15.171Z,11.78
2023-04-19T06:31:17.184Z,11.80
2023-04-19T06:33:19.172Z,11.83
2023-04-19T06:35:21.394Z,11.75
2023-04-19T06:37:23.323Z,11.77
2023-04-19T06:39:25.404Z,11.88
2023-04-19T06:41:27.400Z,11.96
2023-04-19T06:43:29.428Z,11.91
2023-04-19T06:45:32.217Z,11.89
2023-04-19T06:47:35.927Z,11.91
2023-04-19T06:49:38.087Z,11.89
2023-04-19T06:51:40.392Z,11.95
2023-04-19T06:53:44.199Z,11.97
2023-04-19T06:55:49.408Z,12.07
2023-04-19T06:57:52.644Z,12.03
2023-04-19T06:59:55.792Z,12.14
2023-04-19T07:01:58.764Z,12.19
2023-04-19T07:04:01.879Z,12.22
2023-04-19T07:06:04.472Z,12.23
2023-04-19T07:08:06.481Z,12.32
2023-04-19T07:10:09.702Z,12.29
2023-04-19T07:12:11.697Z,12.40
2023-04-19T07:14:14.485Z,12.41
2023-04-19T07:16:16.935Z,12.35
2023-04-19T07:18:20.380Z,12.41
2023-04-19T07:20:22.720Z,12.39
2023-04-19T07:22:24.826Z,12.34
2023-04-19T07:24:29.833Z,12.47
2023-04-19T07:26:32.018Z,12.34
2023-04-19T07:28:34.240Z,12.51
2023-04-19T07:30:36.603Z,12.53
2023-04-19T07:32:39.050Z,12.67
2023-04-19T07:34:42.695Z,12.80
2023-04-19T07:36:44.865Z,12.83
2023-04-19T07:38:47.350Z,12.88
2023-04-19T07:40:50.136Z,12.94
2023-04-19T07:42:52.209Z,13.00
2023-04-19T07:44:54.344Z,13.13
2023-04-19T07:46:56.613Z,13.18
2023-04-19T07:48:58.782Z,13.25
2023-04-19T07:51:07.100Z,13.30
2023-04-19T07:53:09.902Z,13.29
2023-04-19T07:55:11.934Z,13.41
2023-04-19T07:57:13.951Z,13.47
2023-04-19T07:59:16.160Z,13.45
2023-04-19T08:01:18.529Z,13.42
2023-04-19T08:03:20.873Z,13.48
2023-04-19T08:05:24.047Z,13.62
2023-04-19T08:07:26.459Z,13.65
2023-04-19T08:09:28.581Z,13.69
2023-04-19T08:11:30.850Z,13.70
2023-04-19T08:13:32.960Z,13.73
2023-04-19T08:17:43.716Z,13.88
2023-04-19T08:19:46.198Z,13.97
2023-04-19T08:21:48.455Z,13.93
2023-04-19T08:23:52.735Z,13.78
2023-04-19T08:25:56.331Z,13.84
2023-04-19T08:27:58.404Z,13.88
2023-04-19T08:30:00.543Z,14.00
2023-04-19T08:32:02.865Z,13.92
2023-04-19T08:34:05.085Z,13.88
2023-04-19T08:36:07.935Z,13.99
2023-04-19T08:38:10.126Z,14.05
2023-04-19T08:40:12.403Z,14.09
2023-04-19T08:42:28.831Z,14.11
2023-04-19T08:44:46.692Z,14.15
2023-04-19T08:46:58.997Z,14.11
2023-04-19T08:49:01.433Z,14.17
2023-04-19T08:51:05.454Z,14.26
2023-04-19T08:55:16.991Z,14.31
2023-04-19T08:57:19.104Z,14.40
2023-04-19T08:59:21.405Z,14.49
2023-04-19T09:01:34.807Z,14.42
2023-04-19T09:03:59.368Z,14.41
2023-04-19T09:06:05.659Z,14.35
2023-04-19T09:08:14.392Z,14.49
2023-04-19T09:10:18.982Z,14.47
2023-04-19T09:12:21.015Z,14.50
2023-04-19T09:14:23.433Z,14.52
2023-04-19T09:16:26.215Z,14.51
2023-04-19T09:18:30.684Z,14.60
2023-04-19T09:20:38.206Z,14.49
2023-04-19T09:22:40.813Z,14.56
2023-04-19T09:26:54.361Z,14.52
2023-04-19T09:29:02.191Z,14.53
2023-04-19T09:31:26.179Z,14.48
2023-04-19T09:33:35.280Z,14.59
2023-04-19T09:35:41.820Z,14.71
2023-04-19T09:39:48.889Z,14.78
2023-04-19T09:41:53.721Z,14.75
2023-04-19T09:44:50.270Z,14.77
2023-04-19T09:46:35.082Z,14.76
2023-04-19T09:48:37.485Z,14.82
2023-04-19T09:52:53.291Z,14.87
2023-04-19T09:54:56.211Z,14.92
2023-04-19T09:57:00.854Z,14.94
2023-04-19T09:59:19.370Z,14.90
2023-04-19T10:01:23.798Z,15.03
2023-04-19T10:03:29.745Z,14.99
2023-04-19T10:05:33.507Z,15.10
2023-04-19T10:07:37.570Z,15.10
2023-04-19T10:09:51.770Z,15.24
2023-04-19T10:12:03.728Z,15.29
2023-04-19T10:14:16.533Z,15.20
2023-04-19T10:16:20.514Z,15.26
2023-04-19T10:18:23.515Z,15.33
2023-04-19T10:20:31.343Z,15.33
2023-04-19T10:22:37.915Z,15.32
2023-04-19T10:24:39.928Z,15.35
2023-04-19T10:26:48.218Z,15.41
2023-04-19T10:28:50.196Z,15.56
2023-04-19T10:30:55.935Z,15.52
2023-04-19T10:33:00.013Z,15.57
2023-04-19T10:35:05.489Z,15.58
2023-04-19T10:37:11.193Z,15.62
2023-04-19T10:39:36.226Z,15.76
2023-04-19T10:41:59.673Z,15.79
2023-04-19T10:44:05.167Z,15.80
2023-04-19T10:46:14.226Z,16.01
2023-04-19T10:48:22.480Z,16.04
2023-04-19T10:50:25.025Z,16.00
2023-04-19T10:52:29.750Z,16.13
2023-04-19T10:54:34.528Z,16.20
2023-04-19T10:56:39.459Z,16.22
2023-04-19T10:58:48.560Z,16.27
2023-04-19T11:00:50.813Z,16.21
2023-04-19T11:02:52.877Z,16.24
2023-04-19T11:04:55.912Z,16.23
2023-04-19T11:07:02.755Z,16.45
2023-04-19T11:09:07.373Z,16.34
2023-04-19T11:11:11.131Z,16.51
2023-04-19T11:13:14.170Z,16.57
2023-04-19T11:15:16.292Z,16.53
2023-04-19T11:17:19.083Z,16.81
2023-04-19T11:19:21.212Z,16.91
2023-04-19T11:21:24.150Z,16.89
2023-04-19T11:23:26.376Z,16.82
2023-04-19T11:25:31.819Z,16.92
2023-04-19T11:27:34.908Z,17.13
2023-04-19T11:29:37.201Z,17.30
2023-04-19T11:31:39.385Z,17.49
2023-04-19T11:33:44.381Z,17.59
2023-04-19T11:35:46.699Z,17.75
2023-04-19T11:37:49.231Z,17.86
2023-04-19T11:39:51.223Z,17.75
2023-04-19T11:41:53.375Z,17.91
2023-04-19T11:43:55.560Z,18.01
2023-04-19T11:46:06.520Z,17.99
2023-04-19T11:48:15.997Z,18.08
2023-04-19T11:50:24.331Z,18.09
2023-04-19T11:52:26.838Z,18.17
2023-04-19T11:54:29.169Z,18.25
2023-04-19T11:56:31.322Z,18.39
2023-04-19T11:58:38.402Z,18.59
2023-04-19T12:00:40.541Z,18.74
2023-04-19T12:02:44.594Z,18.68
2023-04-19T12:04:52.573Z,18.81
2023-04-19T12:07:03.919Z,18.75
2023-04-19T12:09:10.306Z,18.74
2023-04-19T12:11:12.474Z,18.52
2023-04-19T12:13:18.361Z,18.33
2023-04-19T12:15:23.027Z,18.35
2023-04-19T12:17:27.183Z,18.42
2023-04-19T12:19:36.717Z,18.35
2023-04-19T12:21:39.452Z,18.50
2023-04-19T12:23:42.136Z,18.41
2023-04-19T12:25:46.628Z,18.31
2023-04-19T12:27:48.752Z,18.34
2023-04-19T12:29:51.170Z,18.23
2023-04-19T12:31:53.811Z,18.49
2023-04-19T12:33:56.094Z,18.58
2023-04-19T12:35:58.173Z,18.33
2023-04-19T12:38:00.693Z,18.58
2023-04-19T12:40:02.872Z,18.60
2023-04-19T12:42:06.387Z,18.82
2023-04-19T12:44:08.448Z,18.91
2023-04-19T12:46:10.522Z,19.14
2023-04-19T12:48:12.719Z,19.02
2023-04-19T12:50:16.246Z,19.32
2023-04-19T12:52:19.900Z,19.36
2023-04-19T12:54:21.988Z,19.44
2023-04-19T12:56:24.237Z,19.43
2023-04-19T12:58:28.311Z,19.50
2023-04-19T13:00:30.946Z,19.34
2023-04-19T13:02:35.558Z,19.30
2023-04-19T13:04:38.082Z,19.16
2023-04-19T13:06:41.281Z,19.27
2023-04-19T13:08:47.028Z,19.22
2023-04-19T13:10:50.342Z,19.21
2023-04-19T13:12:52.594Z,19.11
2023-04-19T13:14:54.960Z,19.15
2023-04-19T13:16:57.115Z,19.21
2023-04-19T13:18:59.249Z,19.27
2023-04-19T13:21:01.414Z,19.35
2023-04-19T13:23:03.564Z,19.45
2023-04-19T13:25:06.341Z,19.22
2023-04-19T13:27:09.278Z,19.38
2023-04-19T13:29:11.526Z,19.26
2023-04-19T13:31:13.753Z,19.22
2023-04-19T13:33:15.957Z,19.12
2023-04-19T13:35:18.068Z,19.12
2023-04-19T13:37:20.079Z,19.35
2023-04-19T13:39:22.234Z,19.48
2023-04-19T13:41:24.273Z,19.62
2023-04-19T13:43:26.389Z,19.76
2023-04-19T13:45:28.584Z,19.89
2023-04-19T13:47:30.756Z,20.18
2023-04-19T13:49:32.928Z,20.33
2023-04-19T13:51:46.380Z,20.46
2023-04-19T13:53:52.381Z,20.73
2023-04-19T13:55:54.582Z,20.95
2023-04-19T13:57:56.657Z,21.02
2023-04-19T13:59:58.839Z,21.17
2023-04-19T14:02:03.370Z,21.39
2023-04-19T14:04:06.437Z,21.31
2023-04-19T14:06:08.944Z,21.48
2023-04-19T14:08:11.459Z,21.63
2023-04-19T14:10:13.865Z,21.85
2023-04-19T14:12:16.600Z,22.04
2023-04-19T14:14:19.279Z,22.25
2023-04-19T14:16:24.392Z,22.12
2023-04-19T14:18:26.523Z,22.18
2023-04-19T14:20:28.852Z,22.39
2023-04-19T14:22:32.269Z,21.97
2023-04-19T14:24:34.797Z,22.31
2023-04-19T14:26:37.367Z,22.36
2023-04-19T14:28:40.252Z,22.48
2023-04-19T14:30:42.514Z,22.72
2023-04-19T14:32:45.136Z,22.61
2023-04-19T14:34:47.705Z,22.50
2023-04-19T14:36:51.564Z,22.54
2023-04-19T14:38:54.044Z,22.43
2023-04-19T14:40:56.670Z,22.49
2023-04-19T14:42:58.811Z,22.55
2023-04-19T14:45:01.161Z,22.52
2023-04-19T14:47:03.705Z,22.82
2023-04-19T14:49:06.327Z,22.60
2023-04-19T14:51:08.712Z,22.69
2023-04-19T14:53:11.259Z,22.85
2023-04-19T14:55:14.041Z,22.95
2023-04-19T14:57:16.655Z,23.15
2023-04-19T14:59:18.968Z,23.06
2023-04-19T15:01:23.648Z,22.86
2023-04-19T15:03:26.441Z,22.70
2023-04-19T15:05:29.252Z,22.39
2023-04-19T15:07:31.905Z,22.63
2023-04-19T15:09:34.361Z,22.63
2023-04-19T15:11:37.481Z,22.85
2023-04-19T15:13:40.498Z,22.79
2023-04-19T15:15:42.828Z,22.56
2023-04-19T15:17:45.232Z,22.42
2023-04-19T15:19:47.804Z,22.48
2023-04-19T15:21:50.345Z,22.14
2023-04-19T15:23:52.810Z,21.73
2023-04-19T15:25:56.207Z,21.54
2023-04-19T15:27:58.615Z,21.81
2023-04-19T15:30:01.155Z,21.28
2023-04-19T15:32:04.983Z,21.40
2023-04-19T15:34:07.476Z,21.31
2023-04-19T15:36:09.800Z,21.40
2023-04-19T15:38:11.915Z,21.64
2023-04-19T15:40:14.782Z,21.64
2023-04-19T15:42:17.260Z,21.66
2023-04-19T15:44:20.160Z,22.07
2023-04-19T15:46:22.727Z,22.14
2023-04-19T15:48:25.406Z,22.09
2023-04-19T15:50:28.383Z,21.93
2023-04-19T15:52:30.950Z,21.84
2023-04-19T15:54:33.810Z,21.54
2023-04-19T15:56:36.398Z,21.57
2023-04-19T15:58:39.089Z,21.61
2023-04-19T16:00:41.647Z,21.55
2023-04-19T16:02:44.381Z,21.51
2023-04-19T16:04:48.507Z,21.54
2023-04-19T16:06:51.632Z,21.40
2023-04-19T16:08:54.062Z,21.34
2023-04-19T16:10:56.304Z,20.98
2023-04-19T16:12:58.990Z,20.93
2023-04-19T16:15:01.608Z,20.23
2023-04-19T16:17:04.445Z,20.51
2023-04-19T16:19:06.944Z,20.69
2023-04-19T16:21:11.099Z,20.53
2023-04-19T16:23:14.882Z,20.41
2023-04-19T16:25:17.901Z,20.32
2023-04-19T16:27:20.754Z,20.10
2023-04-19T16:29:23.236Z,20.19
2023-04-19T16:31:26.590Z,20.23
2023-04-19T16:33:29.136Z,19.96
2023-04-19T16:35:31.670Z,19.78
2023-04-19T16:37:34.717Z,19.97
2023-04-19T16:39:37.337Z,19.97
2023-04-19T16:41:39.948Z,20.01
2023-04-19T16:43:42.590Z,20.03
2023-04-19T16:45:48.110Z,19.87
2023-04-19T16:47:50.852Z,19.85
2023-04-19T16:49:54.935Z,19.45
2023-04-19T16:51:58.635Z,19.69
2023-04-19T16:54:01.653Z,19.75
2023-04-19T16:56:04.949Z,19.51
2023-04-19T16:58:07.562Z,19.42
2023-04-19T17:00:11.783Z,19.17
2023-04-19T17:02:17.395Z,19.34
2023-04-19T17:04:20.644Z,19.02
2023-04-19T17:06:23.369Z,19.06
2023-04-19T17:08:26.829Z,18.99
2023-04-19T17:10:29.594Z,18.92
2023-04-19T17:12:31.977Z,18.55
2023-04-19T17:14:35.790Z,18.43
2023-04-19T17:16:38.397Z,18.29
2023-04-19T17:18:40.930Z,18.30
2023-04-19T17:20:43.453Z,18.12
2023-04-19T17:22:45.607Z,18.20
2023-04-19T17:24:48.158Z,18.00
2023-04-19T17:26:50.476Z,17.83
2023-04-19T17:28:53.088Z,17.89
2023-04-19T17:30:55.655Z,17.77
2023-04-19T17:32:58.097Z,17.76
2023-04-19T17:35:00.297Z,17.64
2023-04-19T17:37:02.552Z,17.51
2023-04-19T17:39:06.883Z,17.36
2023-04-19T17:41:16.274Z,17.33
2023-04-19T17:43:18.572Z,17.43
2023-04-19T17:45:21.221Z,16.87
2023-04-19T17:47:23.479Z,17.06
2023-04-19T17:49:27.242Z,17.06
2023-04-19T17:51:29.450Z,16.98
2023-04-19T17:53:32.019Z,16.97
2023-04-19T17:55:34.714Z,17.02
2023-04-19T17:57:37.018Z,17.09
2023-04-19T17:59:39.278Z,16.79
2023-04-19T18:01:41.859Z,16.95
2023-04-19T18:03:44.492Z,16.85
2023-04-19T18:05:47.012Z,16.63
2023-04-19T18:07:49.066Z,16.68
2023-04-19T18:09:51.364Z,16.61
2023-04-19T18:11:53.650Z,16.53
2023-04-19T18:13:56.113Z,16.60
2023-04-19T18:15:59.075Z,16.58
2023-04-19T18:18:01.266Z,16.57
2023-04-19T18:20:05.583Z,16.60
2023-04-19T18:22:07.782Z,16.45
2023-04-19T18:24:10.273Z,16.15
2023-04-19T18:26:14.340Z,16.26
2023-04-19T18:28:16.422Z,16.25
2023-04-19T18:30:18.532Z,16.29
2023-04-19T18:32:22.871Z,16.16
2023-04-19T18:34:25.187Z,16.23
2023-04-19T18:36:28.977Z,16.24
2023-04-19T18:38:31.312Z,16.18
2023-04-19T18:40:33.390Z,16.24
2023-04-19T18:42:35.447Z,16.16
2023-04-19T18:44:53.097Z,16.10
2023-04-19T18:46:56.300Z,16.05
2023-04-19T18:48:58.987Z,15.84
2023-04-19T18:51:01.661Z,15.71
2023-04-19T18:53:03.818Z,15.77
2023-04-19T18:55:06.892Z,15.72
2023-04-19T18:57:22.479Z,15.79
2023-04-19T18:59:26.350Z,15.67
2023-04-19T19:01:28.978Z,15.66
2023-04-19T19:03:56.815Z,15.68
2023-04-19T19:05:55.711Z,15.67
2023-04-19T19:07:58.108Z,15.63
2023-04-19T19:10:03.591Z,15.47
2023-04-19T19:12:12.655Z,15.48
2023-04-19T19:14:16.890Z,15.43
2023-04-19T19:16:19.842Z,15.45
2023-04-19T19:18:22.303Z,15.33
2023-04-19T19:20:24.803Z,15.36
2023-04-19T19:22:28.972Z,15.30
2023-04-19T19:24:31.448Z,15.11
2023-04-19T19:26:33.691Z,15.18
2023-04-19T19:28:36.186Z,15.20
2023-04-19T19:30:40.306Z,15.07
2023-04-19T19:32:42.668Z,15.09
2023-04-19T19:34:54.485Z,15.03
2023-04-19T19:37:01.213Z,14.99
2023-04-19T19:39:03.696Z,15.06
2023-04-19T19:43:12.177Z,14.84
2023-04-19T19:45:15.572Z,14.78
2023-04-19T19:47:19.109Z,14.72
2023-04-19T19:49:22.252Z,14.37
2023-04-19T19:51:52.337Z,14.49
2023-04-19T19:53:46.784Z,14.31
2023-04-19T19:55:48.970Z,14.31
2023-04-19T20:00:00.323Z,14.30
2023-04-19T20:02:12.087Z,14.08
2023-04-19T20:04:14.594Z,14.21
2023-04-19T20:07:13.522Z,14.20
2023-04-19T20:08:44.489Z,14.05
2023-04-19T20:10:47.430Z,13.97
2023-04-19T20:12:49.807Z,14.02
2023-04-19T20:14:52.136Z,14.02
2023-04-19T20:16:54.488Z,14.09
2023-04-19T20:18:58.125Z,14.13
2023-04-19T20:21:00.761Z,14.14
2023-04-19T20:23:03.265Z,13.99
2023-04-19T20:25:06.866Z,13.93
2023-04-19T20:27:09.347Z,13.94
2023-04-19T20:29:11.848Z,13.92
2023-04-19T20:31:14.674Z,13.72
2023-04-19T20:33:17.302Z,13.82
2023-04-19T20:35:19.822Z,13.78
2023-04-19T20:37:23.447Z,13.74
2023-04-19T20:39:27.081Z,13.52
2023-04-19T20:41:29.632Z,13.63
2023-04-19T20:43:32.874Z,13.57
2023-04-19T20:45:35.660Z,13.51
2023-04-19T20:47:39.165Z,13.49
2023-04-19T20:49:41.916Z,13.44
2023-04-19T20:51:44.229Z,13.49
2023-04-19T20:53:46.734Z,13.39
2023-04-19T20:55:49.358Z,13.33
2023-04-19T20:57:51.999Z,13.35
2023-04-19T20:59:54.676Z,13.45
2023-04-19T21:01:57.492Z,13.42
2023-04-19T21:04:00.338Z,13.24
2023-04-19T21:06:03.009Z,13.23
2023-04-19T21:08:05.638Z,13.25
2023-04-19T21:10:08.682Z,13.28
2023-04-19T21:12:11.147Z,13.21
2023-04-19T21:14:13.544Z,13.19
2023-04-19T21:16:15.958Z,13.05
2023-04-19T21:18:18.410Z,12.92
2023-04-19T21:20:20.672Z,12.73
2023-04-19T21:22:23.176Z,12.93
2023-04-19T21:24:25.442Z,12.88
2023-04-19T21:26:27.724Z,12.92
2023-04-19T21:28:30.155Z,12.54
2023-04-19T21:30:32.510Z,12.69
2023-04-19T21:32:34.857Z,12.66
2023-04-19T21:34:38.566Z,12.78
2023-04-19T21:36:41.195Z,12.77
2023-04-19T21:38:43.505Z,12.76
2023-04-19T21:40:45.889Z,12.70
2023-04-19T21:42:48.117Z,12.70
2023-04-19T21:44:50.339Z,12.56
2023-04-19T21:46:52.553Z,12.51
2023-04-19T21:48:56.005Z,12.51
2023-04-19T21:50:58.610Z,12.51
2023-04-19T21:53:01.190Z,12.26
2023-04-19T21:55:03.865Z,12.38
2023-04-19T21:57:06.088Z,12.28
2023-04-19T21:59:08.318Z,12.38
2023-04-19T22:01:11.061Z,12.38
2023-04-19T22:03:13.519Z,12.45
2023-04-19T22:05:17.091Z,12.42
2023-04-19T22:07:19.585Z,12.42
2023-04-19T22:09:21.932Z,12.40
2023-04-19T22:11:24.324Z,12.38
2023-04-19T22:13:28.547Z,12.24
2023-04-19T22:15:31.678Z,12.24
2023-04-19T22:17:33.846Z,12.16
2023-04-19T22:19:36.002Z,12.20
2023-04-19T22:21:38.093Z,12.05
2023-04-19T22:23:40.337Z,12.16
2023-04-19T22:25:42.475Z,12.10
2023-04-19T22:27:45.633Z,12.07
2023-04-19T22:29:47.829Z,12.05
2023-04-19T22:31:49.958Z,11.91
2023-04-19T22:33:52.341Z,11.93
2023-04-19T22:35:54.478Z,11.97
2023-04-19T22:37:56.839Z,12.00
2023-04-19T22:39:59.370Z,12.05
2023-04-19T22:42:01.806Z,12.03
2023-04-19T22:44:04.024Z,12.08
2023-04-19T22:46:06.449Z,11.94
2023-04-19T22:48:09.078Z,11.97
2023-04-19T22:50:11.914Z,11.89
2023-04-19T22:52:14.751Z,11.94
2023-04-19T22:54:17.283Z,11.94
2023-04-19T22:56:20.342Z,12.03
2023-04-19T22:58:22.698Z,11.96
2023-04-19T23:00:26.057Z,11.98
2023-04-19T23:02:28.419Z,11.94
2023-04-19T23:04:35.481Z,11.89
2023-04-19T23:06:37.784Z,11.87
2023-04-19T23:08:40.651Z,11.93
2023-04-19T23:10:43.722Z,11.76
2023-04-19T23:12:47.363Z,11.90
2023-04-19T23:14:50.749Z,11.87
2023-04-19T23:16:54.906Z,11.69
2023-04-19T23:18:57.293Z,11.78
2023-04-19T23:20:59.705Z,11.73
2023-04-19T23:23:02.044Z,11.75
2023-04-19T23:25:04.957Z,11.72
2023-04-19T23:27:07.044Z,11.74
2023-04-19T23:29:10.294Z,11.71
2023-04-19T23:31:12.578Z,11.69
2023-04-19T23:33:14.866Z,11.64
2023-04-19T23:35:17.024Z,11.68
2023-04-19T23:37:19.168Z,11.66
2023-04-19T23:39:22.705Z,11.61
2023-04-19T23:41:24.914Z,11.57
2023-04-19T23:43:27.187Z,11.52
2023-04-19T23:45:30.072Z,11.51
2023-04-19T23:47:32.170Z,11.49
2023-04-19T23:49:35.351Z,11.53
2023-04-19T23:51:37.615Z,11.48
2023-04-19T23:53:39.868Z,11.37
2023-04-19T23:55:41.979Z,11.52
2023-04-19T23:57:44.312Z,11.43
2023-04-19T23:59:46.591Z,11.46
